Time;durP1;ratioP1;P1;durP2;ratioP2;P2;SDS_P1;SDS_P2;PMS_P1;PMS_P2;Temp;Humidity;BMP_temperature;BMP_pressure;BME280_temperature;BME280_humidity;BME280_pressure;Samples;Min_cycle;Max_cycle;Signal;HPM_P1;HPM_P2
2021/03/29 00:00:48;;;;;;;3.08;2.00;;;;;;;;;;5036803;28;20022;-60
2021/03/29 00:03:15;;;;;;;2.60;1.67;;;;;;;;;;5036770;28;20081;-60
2021/03/29 00:05:41;;;;;;;4.82;1.98;;;;;;;;;;5035439;28;20116;-60
2021/03/29 00:08:12;;;;;;;3.88;1.88;;;;;;;;;;5036237;28;20029;-60
2021/03/29 00:10:39;;;;;;;2.40;1.70;;;;;;;;;;5036555;28;20029;-60
2021/03/29 00:13:05;;;;;;;4.47;1.95;;;;;;;;;;5036621;28;20025;-60
2021/03/29 00:15:34;;;;;;;4.68;1.75;;;;;;;;;;5036445;28;20025;-60
2021/03/29 00:18:00;;;;;;;7.82;2.05;;;;;;;;;;5036276;28;20025;-60
2021/03/29 00:20:30;;;;;;;3.20;1.60;;;;;;;;;;5036801;28;20025;-60
2021/03/29 00:22:56;;;;;;;;;;;;;;;;;;5036751;28;20347;-60
2021/03/29 00:25:22;;;;;;;4.00;1.90;;;;;;;;;;5036332;28;20362;-60
2021/03/29 00:27:49;;;;;;;6.22;2.40;;;;;;;;;;5035976;28;20037;-60
2021/03/29 00:30:17;;;;;;;8.95;2.70;;;;;;;;;;5036166;28;20022;-60
2021/03/29 00:32:43;;;;;;;5.72;2.15;;;;;;;;;;5036153;28;20042;-60
2021/03/29 00:35:11;;;;;;;3.45;2.13;;;;;;;;;;5035937;28;20113;-61
2021/03/29 00:37:39;;;;;;;5.80;2.17;;;;;;;;;;5036008;28;20029;-60
2021/03/29 00:40:06;;;;;;;4.10;2.00;;;;;;;;;;5036017;28;20029;-61
2021/03/29 00:42:32;;;;;;;2.70;1.63;;;;;;;;;;5034713;28;20019;-60
2021/03/29 00:44:59;;;;;;;7.97;2.42;;;;;;;;;;5034631;28;20034;-60
2021/03/29 00:47:25;;;;;;;8.07;2.13;;;;;;;;;;5035830;28;20357;-60
2021/03/29 00:49:51;;;;;;;5.72;2.13;;;;;;;;;;5035582;28;20039;-60
2021/03/29 00:52:17;;;;;;;5.53;1.85;;;;;;;;;;5036109;28;20112;-60
2021/03/29 00:54:44;;;;;;;4.30;2.00;;;;;;;;;;5035725;28;20025;-61
2021/03/29 00:57:10;;;;;;;6.97;2.33;;;;;;;;;;5034283;28;20113;-60
2021/03/29 00:59:36;;;;;;;4.50;2.15;;;;;;;;;;5035620;28;20402;-61
2021/03/29 01:02:03;;;;;;;4.28;2.15;;;;;;;;;;5035777;28;20410;-61
2021/03/29 01:04:29;;;;;;;3.90;1.83;;;;;;;;;;5035343;28;20040;-60
2021/03/29 01:06:55;;;;;;;5.18;1.98;;;;;;;;;;5035540;28;20099;-60
2021/03/29 01:09:26;;;;;;;3.13;1.77;;;;;;;;;;5035292;28;20462;-61
2021/03/29 01:11:53;;;;;;;4.28;1.92;;;;;;;;;;5035567;28;20053;-60
2021/03/29 01:14:22;;;;;;;3.95;1.80;;;;;;;;;;5035516;28;20112;-60
2021/03/29 01:16:55;;;;;;;6.25;1.92;;;;;;;;;;5035136;28;20025;-60
2021/03/29 01:19:41;;;;;;;3.47;2.15;;;;;;;;;;5035449;28;20060;-60
2021/03/29 01:22:10;;;;;;;4.30;1.98;;;;;;;;;;5034637;28;20036;-61
2021/03/29 01:24:45;;;;;;;6.75;1.95;;;;;;;;;;5035624;28;20036;-60
2021/03/29 01:27:16;;;;;;;4.25;2.40;;;;;;;;;;5035201;28;20021;-60
2021/03/29 01:29:43;;;;;;;5.38;1.60;;;;;;;;;;5035274;28;20037;-60
2021/03/29 01:32:09;;;;;;;3.67;2.28;;;;;;;;;;5035244;28;20022;-60
2021/03/29 01:34:37;;;;;;;4.25;1.60;;;;;;;;;;5034926;28;20344;-61
2021/03/29 01:37:04;;;;;;;4.05;1.95;;;;;;;;;;5034791;28;20029;-60
2021/03/29 01:39:31;;;;;;;5.57;1.92;;;;;;;;;;5033563;28;20140;-60
2021/03/29 01:41:57;;;;;;;2.58;1.50;;;;;;;;;;5033164;28;20406;-60
2021/03/29 01:44:23;;;;;;;3.92;1.90;;;;;;;;;;5033562;28;20044;-60
2021/03/29 01:46:50;;;;;;;2.65;1.30;;;;;;;;;;5034793;28;20028;-60
2021/03/29 01:49:16;;;;;;;6.20;1.95;;;;;;;;;;5033265;28;20029;-60
2021/03/29 01:51:42;;;;;;;6.90;2.15;;;;;;;;;;5034731;28;20053;-60
2021/03/29 01:54:08;;;;;;;5.18;1.77;;;;;;;;;;5034603;28;20033;-60
2021/03/29 01:56:35;;;;;;;3.92;2.25;;;;;;;;;;5034304;28;20355;-60
2021/03/29 01:59:01;;;;;;;4.22;2.05;;;;;;;;;;5034599;28;20029;-60
2021/03/29 02:01:27;;;;;;;2.55;1.50;;;;;;;;;;5034520;28;20025;-60
2021/03/29 02:03:53;;;;;;;4.15;1.95;;;;;;;;;;5034542;28;20104;-60
2021/03/29 02:06:19;;;;;;;4.20;1.90;;;;;;;;;;5033828;28;20029;-60
2021/03/29 02:08:45;;;;;;;4.68;2.03;;;;;;;;;;5032875;28;20120;-60
2021/03/29 02:11:12;;;;;;;4.47;1.80;;;;;;;;;;5032808;28;20032;-60
2021/03/29 02:13:41;;;;;;;5.18;1.63;;;;;;;;;;5034293;28;20155;-60
2021/03/29 02:16:08;;;;;;;4.05;1.92;;;;;;;;;;5034421;28;20024;-60
2021/03/29 02:18:39;;;;;;;4.25;2.40;;;;;;;;;;5034041;28;20510;-60
2021/03/29 02:21:07;;;;;;;5.65;2.08;;;;;;;;;;5034184;28;20032;-60
2021/03/29 02:23:33;;;;;;;3.88;1.98;;;;;;;;;;5032509;28;20084;-60
2021/03/29 02:26:01;;;;;;;2.65;1.45;;;;;;;;;;5032953;28;20057;-60
2021/03/29 02:28:27;;;;;;;3.90;1.65;;;;;;;;;;5033986;28;20044;-60
2021/03/29 02:30:53;;;;;;;4.07;1.60;;;;;;;;;;5034028;28;20021;-60
2021/03/29 02:33:19;;;;;;;6.30;1.50;;;;;;;;;;5033946;28;20509;-60
2021/03/29 02:35:46;;;;;;;1.95;1.73;;;;;;;;;;5034353;28;20043;-60
2021/03/29 02:38:13;;;;;;;3.28;1.73;;;;;;;;;;5033477;28;20025;-60
2021/03/29 02:40:40;;;;;;;4.63;1.90;;;;;;;;;;5033623;28;20505;-60
2021/03/29 02:43:07;;;;;;;5.65;1.83;;;;;;;;;;5032616;28;20026;-60
2021/03/29 02:45:35;;;;;;;8.18;2.15;;;;;;;;;;5034094;28;20026;-62
2021/03/29 02:48:04;;;;;;;1.83;1.40;;;;;;;;;;5032682;28;20052;-62
2021/03/29 02:50:31;;;;;;;3.40;1.75;;;;;;;;;;5052916;28;20021;-62
2021/03/29 02:52:58;;;;;;;3.85;1.95;;;;;;;;;;5053309;28;20024;-62
2021/03/29 02:55:26;;;;;;;4.75;1.80;;;;;;;;;;5052281;28;20039;-62
2021/03/29 02:57:53;;;;;;;3.65;1.90;;;;;;;;;;5053206;28;20079;-62
2021/03/29 03:00:21;;;;;;;4.35;1.55;;;;;;;;;;5053607;28;20027;-62
2021/03/29 03:02:47;;;;;;;2.17;1.50;;;;;;;;;;5053517;28;20100;-62
2021/03/29 03:05:14;;;;;;;4.25;1.92;;;;;;;;;;5052997;28;20078;-62
2021/03/29 03:07:40;;;;;;;6.30;1.67;;;;;;;;;;5053555;28;20044;-61
2021/03/29 03:10:08;;;;;;;3.53;1.55;;;;;;;;;;5053181;28;20027;-62
2021/03/29 03:12:35;;;;;;;3.35;1.42;;;;;;;;;;5052088;28;20029;-62
2021/03/29 03:15:01;;;;;;;8.70;2.17;;;;;;;;;;5051804;28;20052;-62
2021/03/29 03:17:27;;;;;;;14.30;2.20;;;;;;;;;;5052244;28;20047;-62
2021/03/29 03:19:53;;;;;;;3.03;1.80;;;;;;;;;;5051616;28;20033;-62
2021/03/29 03:22:19;;;;;;;1.88;1.50;;;;;;;;;;5048132;28;20435;-61
2021/03/29 03:24:45;;;;;;;2.65;1.30;;;;;;;;;;5033238;28;20056;-61
2021/03/29 03:27:11;;;;;;;7.72;1.90;;;;;;;;;;5033199;28;20037;-61
2021/03/29 03:29:38;;;;;;;3.88;1.50;;;;;;;;;;5033264;28;20029;-62
2021/03/29 03:32:05;;;;;;;2.63;1.50;;;;;;;;;;5033079;28;20025;-61
2021/03/29 03:34:30;;;;;;;4.20;1.70;;;;;;;;;;5032810;28;20061;-62
2021/03/29 03:36:57;;;;;;;5.60;2.00;;;;;;;;;;5033241;28;20061;-62
2021/03/29 03:39:23;;;;;;;3.00;1.60;;;;;;;;;;5032885;28;20390;-62
2021/03/29 03:41:49;;;;;;;3.58;1.42;;;;;;;;;;5032879;28;20025;-61
2021/03/29 03:44:16;;;;;;;4.07;1.63;;;;;;;;;;5032783;28;20370;-61
2021/03/29 03:46:44;;;;;;;4.43;1.70;;;;;;;;;;5033035;28;20152;-62
2021/03/29 03:49:19;;;;;;;3.75;1.92;;;;;;;;;;5032362;28;20030;-62
2021/03/29 03:51:45;;;;;;;4.28;1.80;;;;;;;;;;5032870;28;20032;-61
2021/03/29 03:54:12;;;;;;;3.38;1.67;;;;;;;;;;5032934;28;20029;-62
2021/03/29 03:56:38;;;;;;;4.13;1.90;;;;;;;;;;5031558;28;20021;-62
2021/03/29 03:59:05;;;;;;;4.03;2.08;;;;;;;;;;5032501;28;20028;-61
2021/03/29 04:01:39;;;;;;;6.13;2.00;;;;;;;;;;5032569;28;20109;-61
2021/03/29 04:04:05;;;;;;;3.95;1.88;;;;;;;;;;5031638;28;20350;-62
2021/03/29 04:06:31;;;;;;;2.70;1.63;;;;;;;;;;5031723;28;20037;-61
2021/03/29 04:08:57;;;;;;;5.70;1.70;;;;;;;;;;5032623;28;20037;-62
2021/03/29 04:11:27;;;;;;;7.50;2.00;;;;;;;;;;5032830;28;20026;-62
2021/03/29 04:13:53;;;;;;;8.27;1.87;;;;;;;;;;5032589;28;20025;-62
2021/03/29 04:16:19;;;;;;;5.15;2.10;;;;;;;;;;5032545;28;20025;-61
2021/03/29 04:18:45;;;;;;;3.58;1.90;;;;;;;;;;5031072;28;20368;-62
2021/03/29 04:21:11;;;;;;;3.75;1.83;;;;;;;;;;5032749;28;20060;-62
2021/03/29 04:23:37;;;;;;;3.22;1.65;;;;;;;;;;5031303;28;20513;-62
2021/03/29 04:26:03;;;;;;;2.83;1.42;;;;;;;;;;5032524;28;20550;-62
2021/03/29 04:28:29;;;;;;;6.95;1.90;;;;;;;;;;5032398;28;20037;-62
2021/03/29 04:30:55;;;;;;;4.65;2.05;;;;;;;;;;5034453;28;20021;-62
2021/03/29 04:33:22;;;;;;;5.45;2.03;;;;;;;;;;5036218;28;20176;-61
2021/03/29 04:35:48;;;;;;;5.30;2.05;;;;;;;;;;5036305;28;20071;-61
2021/03/29 04:38:14;;;;;;;14.52;2.15;;;;;;;;;;5035930;28;20034;-61
2021/03/29 04:40:40;;;;;;;3.90;2.33;;;;;;;;;;5035873;28;20026;-62
2021/03/29 04:43:06;;;;;;;12.77;2.45;;;;;;;;;;5034081;28;20120;-62
2021/03/29 04:45:32;;;;;;;13.57;2.85;;;;;;;;;;5035801;28;20028;-62
2021/03/29 04:47:58;;;;;;;6.25;2.20;;;;;;;;;;5035773;28;20056;-62
2021/03/29 04:50:25;;;;;;;4.28;2.40;;;;;;;;;;5035922;28;20033;-62
2021/03/29 04:52:52;;;;;;;20.50;2.38;;;;;;;;;;5035870;28;20104;-62
2021/03/29 04:55:18;;;;;;;7.65;2.47;;;;;;;;;;5035773;28;20030;-61
2021/03/29 04:57:44;;;;;;;3.53;1.85;;;;;;;;;;5035366;28;20025;-61
2021/03/29 05:00:11;;;;;;;3.33;2.00;;;;;;;;;;5034571;28;20029;-62
2021/03/29 05:02:37;;;;;;;6.10;2.83;;;;;;;;;;5035788;28;20037;-61
2021/03/29 05:05:04;;;;;;;8.75;2.25;;;;;;;;;;5035654;28;20041;-62
2021/03/29 05:07:30;;;;;;;8.32;2.00;;;;;;;;;;5035192;28;20458;-61
2021/03/29 05:09:56;;;;;;;3.05;2.03;;;;;;;;;;5035322;28;20021;-61
2021/03/29 05:12:23;;;;;;;7.13;2.72;;;;;;;;;;5034071;28;20057;-61
2021/03/29 05:14:49;;;;;;;10.77;2.42;;;;;;;;;;5043184;28;20033;-61
2021/03/29 05:17:15;;;;;;;6.88;2.28;;;;;;;;;;5042973;28;20017;-61
2021/03/29 05:19:41;;;;;;;7.25;1.98;;;;;;;;;;5055347;28;20087;-61
2021/03/29 05:22:08;;;;;;;6.68;2.35;;;;;;;;;;5055096;28;20442;-62
2021/03/29 05:24:34;;;;;;;3.55;1.75;;;;;;;;;;5055214;28;20025;-61
2021/03/29 05:27:01;;;;;;;7.38;2.10;;;;;;;;;;5055222;28;20092;-62
2021/03/29 05:29:41;;;;;;;4.18;1.73;;;;;;;;;;5055239;28;20402;-62
2021/03/29 05:32:17;;;;;;;6.00;1.95;;;;;;;;;;5045913;28;20032;-62
2021/03/29 05:34:44;;;;;;;5.85;1.88;;;;;;;;;;5041984;28;20029;-61
2021/03/29 05:37:10;;;;;;;7.10;2.25;;;;;;;;;;5042491;28;20036;-61
2021/03/29 05:39:36;;;;;;;5.00;2.42;;;;;;;;;;5046916;28;20145;-61
2021/03/29 05:42:03;;;;;;;5.15;1.85;;;;;;;;;;5041388;28;20458;-61
2021/03/29 05:44:29;;;;;;;2.72;1.55;;;;;;;;;;5034880;28;20033;-61
2021/03/29 05:46:55;;;;;;;6.28;2.22;;;;;;;;;;5033269;28;20474;-61
2021/03/29 05:49:21;;;;;;;3.15;1.83;;;;;;;;;;5034666;28;20064;-62
2021/03/29 05:51:47;;;;;;;7.95;2.10;;;;;;;;;;5034597;28;20076;-61
2021/03/29 05:54:13;;;;;;;6.75;2.10;;;;;;;;;;5034260;28;20163;-62
2021/03/29 05:56:40;;;;;;;4.55;2.08;;;;;;;;;;5033079;28;20021;-61
2021/03/29 05:59:27;;;;;;;2.25;1.88;;;;;;;;;;5034426;28;20017;-62
2021/03/29 06:01:53;;;;;;;7.63;2.53;;;;;;;;;;5034554;28;20026;-61
2021/03/29 06:04:37;;;;;;;3.30;1.73;;;;;;;;;;5034385;28;20030;-62
2021/03/29 06:07:14;;;;;;;4.45;2.10;;;;;;;;;;5036037;28;20034;-62
2021/03/29 06:09:40;;;;;;;5.63;2.10;;;;;;;;;;5047712;28;20344;-62
2021/03/29 06:12:06;;;;;;;3.15;1.60;;;;;;;;;;5054082;28;20025;-61
2021/03/29 06:14:34;;;;;;;7.35;1.90;;;;;;;;;;5050350;28;20124;-61
2021/03/29 06:17:03;;;;;;;3.28;1.70;;;;;;;;;;5032332;28;20021;-62
2021/03/29 06:19:49;;;;;;;7.82;2.13;;;;;;;;;;5034168;28;20025;-62
2021/03/29 06:22:44;;;;;;;8.60;2.10;;;;;;;;;;5044245;28;20031;-62
2021/03/29 06:25:10;;;;;;;6.13;2.13;;;;;;;;;;5053424;28;20363;-62
2021/03/29 06:27:41;;;;;;;3.47;2.30;;;;;;;;;;5047754;28;20029;-62
2021/03/29 06:30:16;;;;;;;2.65;2.13;;;;;;;;;;5043134;28;20362;-62
2021/03/29 06:32:53;;;;;;;2.92;2.08;;;;;;;;;;5049648;28;20025;-62
2021/03/29 06:35:23;;;;;;;2.47;2.28;;;;;;;;;;5052492;28;20029;-62
2021/03/29 06:37:49;;;;;;;4.38;2.00;;;;;;;;;;5043475;28;20344;-62
2021/03/29 06:40:16;;;;;;;4.05;2.00;;;;;;;;;;5036402;28;20037;-62
2021/03/29 06:42:42;;;;;;;3.45;2.13;;;;;;;;;;5033031;28;20356;-62
2021/03/29 06:45:12;;;;;;;2.25;1.58;;;;;;;;;;5046484;28;20473;-62
2021/03/29 06:47:38;;;;;;;3.60;1.88;;;;;;;;;;5040338;28;20056;-62
2021/03/29 06:50:04;;;;;;;3.28;1.65;;;;;;;;;;5039997;28;20434;-62
2021/03/29 06:52:32;;;;;;;3.72;2.22;;;;;;;;;;5047877;28;20128;-62
2021/03/29 06:55:24;;;;;;;5.25;2.22;;;;;;;;;;5051341;28;20033;-62
2021/03/29 06:58:03;;;;;;;3.78;2.13;;;;;;;;;;5050199;28;20041;-62
2021/03/29 07:00:31;;;;;;;2.55;1.85;;;;;;;;;;5050434;28;20052;-62
2021/03/29 07:02:59;;;;;;;3.90;2.33;;;;;;;;;;5039869;28;20086;-63
2021/03/29 07:05:25;;;;;;;2.78;2.00;;;;;;;;;;5049456;28;20025;-62
2021/03/29 07:07:52;;;;;;;3.35;2.15;;;;;;;;;;5051441;28;20045;-62
2021/03/29 07:10:19;;;;;;;6.13;2.50;;;;;;;;;;5053174;28;20040;-62
2021/03/29 07:12:46;;;;;;;10.50;2.38;;;;;;;;;;5051712;28;20024;-62
2021/03/29 07:15:12;;;;;;;5.20;2.45;;;;;;;;;;5052850;28;20367;-62
2021/03/29 07:17:40;;;;;;;5.53;2.67;;;;;;;;;;5042052;28;20183;-63
2021/03/29 07:20:07;;;;;;;5.60;2.22;;;;;;;;;;5032918;28;20224;-63
2021/03/29 07:22:37;;;;;;;4.65;2.15;;;;;;;;;;5031630;28;20013;-62
2021/03/29 07:25:05;;;;;;;7.18;2.42;;;;;;;;;;5038020;28;20029;-62
2021/03/29 07:27:34;;;;;;;7.93;2.08;;;;;;;;;;5040115;28;20033;-62
2021/03/29 07:30:00;;;;;;;7.25;2.25;;;;;;;;;;5032690;28;20311;-62
2021/03/29 07:32:34;;;;;;;4.50;2.40;;;;;;;;;;5033025;28;20432;-62
2021/03/29 07:35:01;;;;;;;8.25;1.95;;;;;;;;;;5040949;28;20049;-62
2021/03/29 07:37:35;;;;;;;7.88;2.45;;;;;;;;;;5040531;28;20351;-63
2021/03/29 07:40:03;;;;;;;5.60;2.85;;;;;;;;;;5050024;28;20013;-62
2021/03/29 07:42:29;;;;;;;11.27;2.47;;;;;;;;;;5052436;28;20025;-62
2021/03/29 07:44:57;;;;;;;8.80;2.28;;;;;;;;;;5049983;28;20120;-62
2021/03/29 07:47:43;;;;;;;3.20;2.35;;;;;;;;;;5050298;28;20025;-63
2021/03/29 07:50:10;;;;;;;5.22;2.42;;;;;;;;;;5041862;28;20056;-63
2021/03/29 07:52:40;;;;;;;8.25;2.63;;;;;;;;;;5043606;28;20028;-63
2021/03/29 07:55:20;;;;;;;5.28;2.05;;;;;;;;;;5049256;28;20032;-63
2021/03/29 07:57:46;;;;;;;6.78;2.65;;;;;;;;;;5051995;28;20029;-63
2021/03/29 08:00:12;;;;;;;5.25;2.88;;;;;;;;;;5039652;28;20060;-63
2021/03/29 08:02:38;;;;;;;11.35;2.75;;;;;;;;;;5047729;28;20022;-63
2021/03/29 08:05:05;;;;;;;10.98;2.03;;;;;;;;;;5046588;28;20033;-63
2021/03/29 08:07:38;;;;;;;3.53;1.85;;;;;;;;;;5051287;28;20234;-63
2021/03/29 08:10:05;;;;;;;4.95;2.47;;;;;;;;;;5041491;28;20056;-63
2021/03/29 08:12:32;;;;;;;10.73;4.13;;;;;;;;;;5046132;28;20032;-63
2021/03/29 08:14:58;;;;;;;6.18;2.53;;;;;;;;;;5054513;28;20059;-63
2021/03/29 08:17:37;;;;;;;7.68;2.55;;;;;;;;;;5054135;28;20025;-63
2021/03/29 08:20:33;;;;;;;11.00;2.63;;;;;;;;;;5055357;28;20109;-64
2021/03/29 08:23:18;;;;;;;12.27;2.10;;;;;;;;;;5048859;28;20360;-64
2021/03/29 08:25:43;;;;;;;4.82;2.47;;;;;;;;;;5044686;28;20573;-64
2021/03/29 08:28:09;;;;;;;6.30;2.58;;;;;;;;;;5027401;28;20069;-64
2021/03/29 08:30:41;;;;;;;6.32;3.35;;;;;;;;;;5042687;28;20036;-64
2021/03/29 08:33:11;;;;;;;5.43;2.80;;;;;;;;;;5044848;28;20439;-63
2021/03/29 08:35:37;;;;;;;8.43;3.38;;;;;;;;;;5022217;28;20018;-64
2021/03/29 08:38:07;;;;;;;9.55;2.95;;;;;;;;;;5029528;28;20064;-64
2021/03/29 08:40:33;;;;;;;5.35;3.15;;;;;;;;;;5035283;28;20041;-64
2021/03/29 08:43:06;;;;;;;6.30;3.47;;;;;;;;;;5052649;28;20028;-64
2021/03/29 08:45:33;;;;;;;8.13;3.58;;;;;;;;;;5047080;28;20216;-64
2021/03/29 08:48:00;;;;;;;3.10;2.40;;;;;;;;;;5045854;28;20067;-64
2021/03/29 08:50:28;;;;;;;4.50;2.45;;;;;;;;;;5041180;28;20034;-64
2021/03/29 08:52:58;;;;;;;3.75;2.42;;;;;;;;;;5033374;28;20075;-64
2021/03/29 08:55:25;;;;;;;8.70;3.05;;;;;;;;;;5026913;28;20467;-64
2021/03/29 08:57:54;;;;;;;9.38;2.55;;;;;;;;;;5035059;28;20033;-64
2021/03/29 09:00:21;;;;;;;8.13;2.97;;;;;;;;;;5047948;28;20037;-64
2021/03/29 09:02:48;;;;;;;5.85;3.00;;;;;;;;;;5045425;28;20013;-64
2021/03/29 09:05:14;;;;;;;7.60;4.50;;;;;;;;;;5045008;28;20324;-64
2021/03/29 09:07:45;;;;;;;5.93;3.90;;;;;;;;;;5043864;28;20033;-64
2021/03/29 09:10:22;;;;;;;8.63;3.13;;;;;;;;;;5044926;28;20040;-64
2021/03/29 09:12:56;;;;;;;7.97;3.63;;;;;;;;;;5041877;28;20443;-64
2021/03/29 09:15:23;;;;;;;18.63;4.65;;;;;;;;;;5044050;28;20140;-64
2021/03/29 09:18:04;;;;;;;8.15;3.47;;;;;;;;;;5045905;28;20474;-64
2021/03/29 09:20:34;;;;;;;4.60;2.10;;;;;;;;;;5055140;28;20060;-64
2021/03/29 09:23:00;;;;;;;2.70;1.65;;;;;;;;;;5038494;28;20021;-64
2021/03/29 09:25:33;;;;;;;9.82;3.72;;;;;;;;;;5033698;28;20030;-64
2021/03/29 09:28:41;;;;;;;1.17;1.08;;;;;;;;;;5035196;28;20028;-64
2021/03/29 09:31:09;;;;;;;5.90;2.33;;;;;;;;;;5034643;28;20128;-64
2021/03/29 09:33:35;;;;;;;5.63;1.85;;;;;;;;;;5036650;28;20021;-64
2021/03/29 09:36:12;;;;;;;4.40;2.28;;;;;;;;;;5035152;28;20048;-64
2021/03/29 09:38:39;;;;;;;3.60;2.13;;;;;;;;;;5034939;28;20032;-64
2021/03/29 09:41:19;;;;;;;1.55;1.45;;;;;;;;;;5044157;28;20076;-64
2021/03/29 09:43:45;;;;;;;6.28;2.97;;;;;;;;;;5053145;28;20500;-64
2021/03/29 09:46:11;;;;;;;2.00;1.42;;;;;;;;;;5052605;28;20017;-64
2021/03/29 09:48:37;;;;;;;3.40;1.70;;;;;;;;;;5050966;28;20159;-65
2021/03/29 09:51:16;;;;;;;4.93;2.67;;;;;;;;;;5041770;28;20033;-64
2021/03/29 09:53:42;;;;;;;4.57;2.72;;;;;;;;;;5044235;28;20028;-64
2021/03/29 09:56:08;;;;;;;3.28;1.45;;;;;;;;;;5046228;28;20101;-64
2021/03/29 09:58:37;;;;;;;3.92;2.05;;;;;;;;;;5046475;28;20155;-63
2021/03/29 10:01:06;;;;;;;2.50;1.23;;;;;;;;;;5043943;28;20032;-64
2021/03/29 10:03:33;;;;;;;2.15;1.05;;;;;;;;;;5044892;28;20025;-64
2021/03/29 10:05:59;;;;;;;10.32;1.92;;;;;;;;;;5042100;28;20029;-64
2021/03/29 10:08:28;;;;;;;5.07;1.60;;;;;;;;;;5037551;28;20033;-64
2021/03/29 10:11:07;;;;;;;6.93;3.17;;;;;;;;;;5046592;28;20083;-64
2021/03/29 10:13:38;;;;;;;1.80;1.33;;;;;;;;;;5043201;28;20025;-64
2021/03/29 10:16:23;;;;;;;6.90;2.10;;;;;;;;;;5042360;28;20447;-64
2021/03/29 10:19:01;;;;;;;2.42;1.67;;;;;;;;;;5045406;28;20035;-64
2021/03/29 10:21:27;;;;;;;6.40;2.10;;;;;;;;;;5045604;28;20025;-63
2021/03/29 10:24:09;;;;;;;4.82;1.50;;;;;;;;;;5046659;28;20021;-64
2021/03/29 10:26:37;;;;;;;5.70;1.63;;;;;;;;;;5046550;28;20025;-64
2021/03/29 10:29:04;;;;;;;1.63;1.20;;;;;;;;;;5049364;28;20128;-64
2021/03/29 10:31:31;;;;;;;1.50;1.02;;;;;;;;;;5053348;28;20083;-64
2021/03/29 10:33:58;;;;;;;4.95;1.80;;;;;;;;;;5045010;28;20087;-64
2021/03/29 10:36:25;;;;;;;3.67;1.90;;;;;;;;;;5051924;28;20025;-63
2021/03/29 10:38:51;;;;;;;4.72;1.33;;;;;;;;;;5053233;28;20025;-63
2021/03/29 10:41:17;;;;;;;8.32;1.67;;;;;;;;;;5048134;28;20032;-63
2021/03/29 10:43:43;;;;;;;1.80;1.40;;;;;;;;;;5050570;28;20033;-70
2021/03/29 10:46:09;;;;;;;34.78;5.18;;;;;;;;;;5044225;28;20033;-73
2021/03/29 10:48:36;;;;;;;2.67;1.42;;;;;;;;;;5050872;28;20033;-77
2021/03/29 10:51:03;;;;;;;6.07;2.83;;;;;;;;;;5046364;28;20025;-70
2021/03/29 10:53:30;;;;;;;3.40;2.00;;;;;;;;;;5049298;28;20524;-70
2021/03/29 10:55:56;;;;;;;1.70;1.33;;;;;;;;;;5047917;28;20031;-70
2021/03/29 10:58:22;;;;;;;7.10;1.58;;;;;;;;;;5043826;28;20034;-71
2021/03/29 11:00:48;;;;;;;3.65;1.83;;;;;;;;;;5052510;28;20024;-71
2021/03/29 11:03:14;;;;;;;4.00;1.27;;;;;;;;;;5047508;28;20025;-70
2021/03/29 11:05:40;;;;;;;8.45;2.15;;;;;;;;;;5047331;28;20371;-70
2021/03/29 11:08:06;;;;;;;6.85;2.35;;;;;;;;;;5046232;28;20041;-70
2021/03/29 11:10:33;;;;;;;4.10;1.92;;;;;;;;;;5050399;28;20036;-71
2021/03/29 11:13:00;;;;;;;3.15;1.52;;;;;;;;;;5049869;28;20075;-73
2021/03/29 11:15:26;;;;;;;3.83;1.88;;;;;;;;;;5051861;28;20021;-72
2021/03/29 11:17:52;;;;;;;2.75;1.40;;;;;;;;;;5045376;28;20025;-72
2021/03/29 11:20:18;;;;;;;9.27;1.30;;;;;;;;;;5043519;28;20025;-72
2021/03/29 11:22:44;;;;;;;1.85;1.25;;;;;;;;;;5038304;28;20107;-72
2021/03/29 11:25:11;;;;;;;5.13;1.60;;;;;;;;;;5043848;28;20123;-72
2021/03/29 11:27:36;;;;;;;1.55;1.08;;;;;;;;;;5037595;28;20044;-72
2021/03/29 11:30:08;;;;;;;4.45;1.60;;;;;;;;;;5047109;28;20464;-72
2021/03/29 11:32:34;;;;;;;2.33;1.58;;;;;;;;;;5039810;28;20062;-72
2021/03/29 11:35:00;;;;;;;8.90;1.92;;;;;;;;;;5049771;28;20029;-73
2021/03/29 11:37:26;;;;;;;4.90;1.85;;;;;;;;;;5040906;28;20219;-69
2021/03/29 11:39:52;;;;;;;4.32;1.40;;;;;;;;;;5049603;28;20607;-62
2021/03/29 11:42:18;;;;;;;11.35;2.65;;;;;;;;;;5045187;28;20029;-56
2021/03/29 11:44:44;;;;;;;6.38;1.73;;;;;;;;;;5052763;28;20029;-59
2021/03/29 11:47:10;;;;;;;5.95;1.35;;;;;;;;;;5052408;28;20489;-65
2021/03/29 11:49:36;;;;;;;38.05;4.50;;;;;;;;;;5049847;28;20049;-60
2021/03/29 11:52:02;;;;;;;11.95;2.03;;;;;;;;;;5050892;28;20029;-60
2021/03/29 11:54:28;;;;;;;8.23;1.60;;;;;;;;;;5046627;28;20025;-60
2021/03/29 11:56:54;;;;;;;5.40;1.58;;;;;;;;;;5050970;28;20441;-59
2021/03/29 11:59:22;;;;;;;7.10;2.00;;;;;;;;;;5049212;28;20025;-58
2021/03/29 12:01:52;;;;;;;2.00;1.52;;;;;;;;;;5047140;28;20108;-59
2021/03/29 12:04:24;;;;;;;;;;;;;;;;;;5047934;28;20353;-59
2021/03/29 12:07:04;;;;;;;1.38;0.60;;;;;;;;;;5049979;28;19908;-65
2021/03/29 12:12:07;;;;;;;0.65;0.63;;;;;;;;;;5050641;28;20025;-57
2021/03/29 12:14:38;;;;;;;4.43;1.77;;;;;;;;;;5056423;28;20639;-59
2021/03/29 12:17:04;;;;;;;;;;;;;;;;;;5051125;28;20033;-58
2021/03/29 13:38:18;;;;;;;6.13;1.50;;;14.90;47.80;;;;;;5159293;27;20390;-55
2021/03/29 13:40:43;;;;;;;18.95;2.03;;;14.90;47.30;;;;;;5158127;27;20031;-55
2021/03/29 13:43:14;;;;;;;2.97;1.48;;;15.00;46.60;;;;;;5137529;27;20033;-55
2021/03/29 13:45:39;;;;;;;8.30;1.50;;;15.00;47.70;;;;;;5155104;27;20023;-55
2021/03/29 13:48:06;;;;;;;4.95;1.75;;;15.00;47.60;;;;;;5157782;27;20046;-56
2021/03/29 13:50:34;;;;;;;3.47;1.55;;;15.00;47.60;;;;;;5170620;27;20042;-55
2021/03/29 13:53:00;;;;;;;3.05;1.00;;;15.00;47.70;;;;;;5157800;27;20030;-55
2021/03/29 13:55:25;;;;;;;2.38;0.90;;;15.00;47.90;;;;;;5153727;27;20023;-56
2021/03/29 13:57:53;;;;;;;2.58;1.00;;;15.00;46.50;;;;;;5155062;27;20368;-55
2021/03/29 14:00:22;;;;;;;1.00;1.00;;;15.10;46.70;;;;;;5152481;27;20512;-55
2021/03/29 14:02:50;;;;;;;4.90;1.65;;;15.10;47.10;;;;;;5150067;27;20035;-55
2021/03/29 14:05:18;;;;;;;3.50;1.70;;;15.10;46.70;;;;;;5153334;27;20098;-56
2021/03/29 14:07:44;;;;;;;2.38;0.82;;;15.10;47.40;;;;;;5153110;27;20035;-62
2021/03/29 14:10:16;;;;;;;1.08;0.95;;;15.10;46.40;;;;;;5148539;27;20052;-65
2021/03/29 14:12:43;;;;;;;0.70;0.70;;;15.10;45.70;;;;;;5145860;27;20080;-58
2021/03/29 14:15:09;;;;;;;4.35;1.52;;;15.10;45.70;;;;;;5142893;27;20019;-58
2021/03/29 14:52:41;;;;;;;3.50;2.08;;;15.00;45.00;;;;;;5128221;27;20362;-59
2021/03/29 14:55:13;;;;;;;4.20;1.30;;;15.10;46.00;;;;;;5100265;28;20089;-59
2021/03/29 14:57:39;;;;;;;6.85;2.10;;;15.10;46.40;;;;;;5099921;28;20503;-59
2021/03/29 15:00:09;;;;;;;6.60;1.75;;;15.10;46.30;;;;;;5119703;28;20040;-59
2021/03/29 15:02:34;;;;;;;2.95;1.30;;;15.10;46.00;;;;;;5086430;28;20035;-59
2021/03/29 15:05:01;;;;;;;5.30;1.63;;;15.10;46.10;;;;;;5099783;28;20023;-59
2021/03/29 15:07:27;;;;;;;2.42;1.52;;;15.10;46.50;;;;;;5110836;28;20035;-59
2021/03/29 15:09:53;;;;;;;3.55;1.75;;;15.00;46.60;;;;;;5087581;28;20016;-59
2021/03/29 15:12:20;;;;;;;7.57;2.30;;;15.10;46.50;;;;;;5109909;28;20020;-63
2021/03/29 15:14:46;;;;;;;11.10;1.85;;;15.10;47.30;;;;;;5109242;28;20016;-63
2021/03/29 15:17:12;;;;;;;7.85;2.47;;;15.00;48.00;;;;;;5109291;28;20408;-63
2021/03/29 15:19:39;;;;;;;1.60;1.50;;;14.90;48.60;;;;;;5091925;28;20020;-63
2021/03/29 15:22:06;;;;;;;3.60;1.33;;;14.80;49.10;;;;;;5091669;28;20058;-63
2021/03/29 15:24:32;;;;;;;2.47;2.08;;;14.70;49.50;;;;;;5109534;28;20052;-63
2021/03/29 15:26:58;;;;;;;1.38;1.10;;;14.70;50.00;;;;;;5086649;28;20051;-63
2021/03/29 15:29:23;;;;;;;2.95;1.80;;;14.60;50.40;;;;;;5091827;28;20023;-63
2021/03/29 15:31:50;;;;;;;1.05;0.90;;;14.60;50.60;;;;;;5109347;28;20438;-63
2021/03/29 15:34:16;;;;;;;3.45;1.88;;;14.60;51.00;;;;;;5097466;28;20072;-62
2021/03/29 15:36:42;;;;;;;3.20;1.65;;;14.60;51.20;;;;;;5094174;28;20020;-63
2021/03/29 15:39:11;;;;;;;7.93;1.70;;;14.50;51.40;;;;;;5105578;28;20030;-60
2021/03/29 15:41:38;;;;;;;5.53;1.13;;;14.50;50.80;;;;;;5109403;28;20062;-61
2021/03/29 15:44:04;;;;;;;1.50;1.40;;;14.60;49.30;;;;;;5099897;28;20027;-60
2021/03/29 15:46:30;;;;;;;7.88;1.70;;;14.70;48.40;;;;;;5098007;28;20109;-60
2021/03/29 15:48:56;;;;;;;4.00;1.85;;;14.80;48.30;;;;;;5107961;28;20024;-51
2021/03/29 15:51:22;;;;;;;1.80;1.30;;;14.80;47.70;;;;;;5109181;28;20111;-58
2021/03/29 15:53:48;;;;;;;12.55;2.00;;;14.90;47.90;;;;;;5094347;28;20454;-55
2021/03/29 15:56:14;;;;;;;6.35;1.70;;;14.80;47.80;;;;;;5079034;28;20032;-52
2021/03/29 15:58:40;;;;;;;3.80;1.92;;;14.90;47.80;;;;;;5094417;28;20462;-56
2021/03/29 16:01:08;;;;;;;5.13;1.73;;;14.90;47.60;;;;;;5095086;28;20075;-53
2021/03/29 16:03:42;;;;;;;1.98;1.30;;;14.90;48.30;;;;;;5095026;28;20514;-52
2021/03/29 16:06:12;;;;;;;1.65;1.35;;;14.90;48.10;;;;;;5092328;28;20086;-52
2021/03/29 16:08:38;;;;;;;;;;;14.90;47.90;;;;;;5095053;28;20032;-52
2021/03/29 16:11:05;;;;;;;1.75;1.40;;;14.90;47.80;;;;;;5093090;28;19912;-52
2021/03/29 16:13:31;;;;;;;3.83;1.48;;;14.90;47.80;;;;;;5094323;28;20028;-52
2021/03/29 16:15:57;;;;;;;2.60;1.58;;;14.90;47.40;;;;;;5094668;28;20031;-53
2021/03/29 16:18:22;;;;;;;2.80;1.90;;;14.90;48.00;;;;;;5093352;28;20024;-53
2021/03/29 16:20:48;;;;;;;5.72;1.63;;;14.90;48.40;;;;;;5092340;28;20115;-53
2021/03/29 16:23:16;;;;;;;2.30;1.38;;;14.90;48.50;;;;;;5092298;28;20043;-53
2021/03/29 16:25:49;;;;;;;5.82;1.65;;;14.90;48.70;;;;;;5094831;28;20039;-53